createdAt,value
2022-09-20T00:00:43.579Z,78.55
2022-09-20T00:01:43.591Z,78.55
2022-09-20T00:02:43.505Z,78.55
2022-09-20T00:03:43.520Z,78.55
2022-09-20T00:04:43.538Z,78.55
2022-09-20T00:05:43.495Z,78.55
2022-09-20T00:06:43.470Z,78.55
2022-09-20T00:07:43.450Z,78.55
2022-09-20T00:08:43.445Z,78.55
2022-09-20T00:09:43.439Z,78.55
2022-09-20T00:10:43.446Z,78.45
2022-09-20T00:11:43.667Z,78.55
2022-09-20T00:12:43.415Z,78.45
2022-09-20T00:13:43.399Z,78.55
2022-09-20T00:14:43.399Z,78.55
2022-09-20T00:15:43.370Z,78.55
2022-09-20T00:16:43.450Z,78.55
2022-09-20T00:17:43.368Z,78.45
2022-09-20T00:19:04.833Z,78.45
2022-09-20T00:19:43.336Z,78.45
2022-09-20T00:20:43.524Z,78.45
2022-09-20T00:21:43.313Z,78.45
2022-09-20T00:22:43.302Z,78.55
2022-09-20T00:23:43.349Z,78.55
2022-09-20T00:24:48.198Z,78.55
2022-09-20T00:25:44.272Z,78.45
2022-09-20T00:26:43.296Z,78.45
2022-09-20T00:27:43.253Z,78.55
2022-09-20T00:28:43.249Z,78.55
2022-09-20T00:29:43.214Z,78.55
2022-09-20T00:30:43.204Z,78.55
2022-09-20T00:31:43.374Z,78.45
2022-09-20T00:32:43.231Z,78.45
2022-09-20T00:33:43.209Z,78.45
2022-09-20T00:34:43.197Z,78.45
2022-09-20T00:35:43.147Z,78.45
2022-09-20T00:36:43.167Z,78.45
2022-09-20T00:37:43.125Z,78.45
2022-09-20T00:38:43.143Z,78.45
2022-09-20T00:39:43.129Z,78.35
2022-09-20T00:40:43.190Z,78.45
2022-09-20T00:41:43.153Z,78.45
2022-09-20T00:42:43.077Z,78.35
2022-09-20T00:43:43.072Z,78.35
2022-09-20T00:44:43.089Z,78.35
2022-09-20T00:45:43.133Z,78.35
2022-09-20T00:46:43.045Z,78.35
2022-09-20T00:47:43.012Z,78.35
2022-09-20T00:48:43.020Z,78.35
2022-09-20T00:49:43.015Z,78.35
2022-09-20T00:50:43.005Z,78.35
2022-09-20T00:51:42.982Z,78.35
2022-09-20T00:52:42.971Z,78.35
2022-09-20T00:53:42.967Z,78.35
2022-09-20T00:54:42.953Z,78.35
2022-09-20T00:55:42.961Z,78.35
2022-09-20T00:56:42.938Z,78.35
2022-09-20T00:57:42.903Z,78.35
2022-09-20T00:58:42.903Z,78.35
2022-09-20T00:59:42.904Z,78.35
2022-09-20T01:00:42.925Z,78.25
2022-09-20T01:01:42.932Z,78.25
2022-09-20T01:02:42.911Z,78.35
2022-09-20T01:03:42.897Z,78.25
2022-09-20T01:04:42.842Z,78.25
2022-09-20T01:05:42.843Z,78.25
2022-09-20T01:06:42.824Z,78.25
2022-09-20T01:07:42.814Z,78.25
2022-09-20T01:08:42.831Z,78.25
2022-09-20T01:09:42.795Z,78.25
2022-09-20T01:10:42.787Z,78.25
2022-09-20T01:11:42.771Z,78.25
2022-09-20T01:12:42.772Z,78.25
2022-09-20T01:13:42.754Z,78.25
2022-09-20T01:14:42.742Z,78.25
2022-09-20T01:15:42.720Z,78.25
2022-09-20T01:16:42.792Z,78.25
2022-09-20T01:17:42.689Z,78.25
2022-09-20T01:18:42.689Z,78.25
2022-09-20T01:19:42.685Z,78.25
2022-09-20T01:20:42.672Z,78.25
2022-09-20T01:21:42.728Z,78.25
2022-09-20T01:22:42.682Z,78.25
2022-09-20T01:23:42.626Z,78.25
2022-09-20T01:24:42.637Z,78.15
2022-09-20T01:25:42.619Z,78.15
2022-09-20T01:26:42.623Z,78.25
2022-09-20T01:27:42.625Z,78.25
2022-09-20T01:28:42.601Z,78.25
2022-09-20T01:29:42.566Z,78.25
2022-09-20T01:30:42.575Z,78.28
2022-09-20T01:31:42.616Z,78.25
2022-09-20T01:32:42.542Z,78.28
2022-09-20T01:33:42.533Z,78.25
2022-09-20T01:34:42.520Z,78.28
2022-09-20T01:35:42.510Z,78.25
2022-09-20T01:36:42.502Z,78.28
2022-09-20T01:37:42.489Z,78.25
2022-09-20T01:38:42.501Z,78.25
2022-09-20T01:39:42.481Z,78.28
2022-09-20T01:40:42.526Z,78.28
2022-09-20T01:41:42.441Z,78.28
2022-09-20T01:42:42.441Z,78.25
2022-09-20T01:43:42.530Z,78.25
2022-09-20T01:44:42.426Z,78.39
2022-09-20T01:45:42.467Z,78.28
2022-09-20T01:46:42.378Z,78.39
2022-09-20T01:47:42.386Z,78.39
2022-09-20T01:48:42.378Z,78.39
2022-09-20T01:49:42.358Z,78.39
2022-09-20T01:50:42.351Z,78.39
2022-09-20T01:51:42.329Z,78.28
2022-09-20T01:52:42.337Z,78.39
2022-09-20T01:53:42.322Z,78.39
2022-09-20T01:54:42.286Z,78.28
2022-09-20T01:55:42.307Z,78.39
2022-09-20T01:56:42.275Z,78.39
2022-09-20T01:57:42.278Z,78.39
2022-09-20T01:58:42.245Z,78.39
2022-09-20T01:59:42.255Z,78.39
2022-09-20T02:00:42.263Z,78.39
2022-09-20T02:01:42.215Z,78.39
2022-09-20T02:02:42.308Z,78.39
2022-09-20T02:03:42.198Z,78.39
2022-09-20T02:04:42.199Z,78.39
2022-09-20T02:05:42.215Z,78.39
2022-09-20T02:06:42.167Z,78.39
2022-09-20T02:07:42.163Z,78.39
2022-09-20T02:08:42.167Z,78.39
2022-09-20T02:09:42.150Z,78.39
2022-09-20T02:10:42.132Z,78.39
2022-09-20T02:11:42.104Z,78.39
2022-09-20T02:12:42.109Z,78.39
2022-09-20T02:13:42.106Z,78.39
2022-09-20T02:14:42.095Z,78.39
2022-09-20T02:15:42.086Z,78.39
2022-09-20T02:16:42.096Z,78.49
2022-09-20T02:17:42.067Z,78.49
2022-09-20T02:18:42.068Z,78.49
2022-09-20T02:19:42.034Z,78.49
2022-09-20T02:20:42.027Z,78.49
2022-09-20T02:21:42.005Z,78.49
2022-09-20T02:22:42.030Z,78.49
2022-09-20T02:23:41.993Z,78.49
2022-09-20T02:24:41.988Z,78.49
2022-09-20T02:25:41.954Z,78.49
2022-09-20T02:26:41.959Z,78.49
2022-09-20T02:27:41.948Z,78.59
2022-09-20T02:28:41.940Z,78.59
2022-09-20T02:29:41.943Z,78.59
2022-09-20T02:30:41.913Z,78.59
2022-09-20T02:31:41.944Z,78.59
2022-09-20T02:32:41.884Z,78.59
2022-09-20T02:33:41.888Z,78.59
2022-09-20T02:34:41.879Z,78.59
2022-09-20T02:35:41.852Z,78.59
2022-09-20T02:36:41.842Z,78.59
2022-09-20T02:37:41.832Z,78.59
2022-09-20T02:38:41.814Z,78.59
2022-09-20T02:39:41.831Z,78.59
2022-09-20T02:40:41.872Z,78.59
2022-09-20T02:41:41.806Z,78.59
2022-09-20T02:42:41.782Z,78.69
2022-09-20T02:43:41.775Z,78.69
2022-09-20T02:44:41.773Z,78.69
2022-09-20T02:45:41.841Z,78.59
2022-09-20T02:46:41.766Z,78.69
2022-09-20T02:47:41.728Z,78.69
2022-09-20T02:48:41.714Z,78.69
2022-09-20T02:49:41.723Z,78.69
2022-09-20T02:50:41.681Z,78.69
2022-09-20T02:51:41.680Z,78.69
2022-09-20T02:52:41.721Z,78.69
2022-09-20T02:53:41.674Z,78.69
2022-09-20T02:54:41.665Z,78.69
2022-09-20T02:55:41.648Z,78.69
2022-09-20T02:56:41.635Z,78.69
2022-09-20T02:57:41.634Z,78.69
2022-09-20T02:58:41.632Z,78.79
2022-09-20T02:59:41.616Z,78.79
2022-09-20T03:00:41.580Z,78.79
2022-09-20T03:01:41.655Z,78.79
2022-09-20T03:02:41.615Z,78.79
2022-09-20T03:03:41.595Z,78.79
2022-09-20T03:04:41.543Z,78.79
2022-09-20T03:05:41.544Z,78.79
2022-09-20T03:06:41.509Z,78.79
2022-09-20T03:07:41.548Z,78.79
2022-09-20T03:08:41.503Z,78.79
2022-09-20T03:09:41.479Z,78.79
2022-09-20T03:10:41.497Z,78.79
2022-09-20T03:11:41.488Z,78.79
2022-09-20T03:12:41.449Z,78.79
2022-09-20T03:13:41.439Z,78.79
2022-09-20T03:14:41.419Z,78.79
2022-09-20T03:15:41.434Z,78.79
2022-09-20T03:16:41.527Z,78.79
2022-09-20T03:17:41.412Z,78.89
2022-09-20T03:18:41.401Z,78.89
2022-09-20T03:19:41.376Z,78.79
2022-09-20T03:20:41.454Z,78.79
2022-09-20T03:21:41.357Z,78.79
2022-09-20T03:22:41.351Z,78.79
2022-09-20T03:23:41.337Z,78.79
2022-09-20T03:24:41.342Z,78.79
2022-09-20T03:25:41.317Z,78.89
2022-09-20T03:26:41.316Z,78.89
2022-09-20T03:27:41.295Z,78.89
2022-09-20T03:28:41.267Z,78.89
2022-09-20T03:29:41.267Z,78.89
2022-09-20T03:30:41.271Z,78.89
2022-09-20T03:31:41.270Z,78.89
2022-09-20T03:32:41.241Z,78.89
2022-09-20T03:33:41.218Z,78.89
2022-09-20T03:34:41.207Z,78.89
2022-09-20T03:35:41.230Z,78.89
2022-09-20T03:36:41.206Z,78.89
2022-09-20T03:37:41.178Z,78.89
2022-09-20T03:38:41.179Z,78.89
2022-09-20T03:39:41.175Z,78.89
2022-09-20T03:40:45.712Z,78.89
2022-09-20T03:41:42.143Z,78.89
2022-09-20T03:42:41.138Z,78.89
2022-09-20T03:43:41.143Z,78.89
2022-09-20T03:44:41.087Z,78.89
2022-09-20T03:45:41.153Z,78.89
2022-09-20T03:46:41.096Z,78.99
2022-09-20T03:47:41.094Z,78.99
2022-09-20T03:48:41.066Z,78.99
2022-09-20T03:49:41.058Z,78.99
2022-09-20T03:50:41.031Z,78.99
2022-09-20T03:51:41.058Z,78.99
2022-09-20T03:52:41.020Z,78.99
2022-09-20T03:53:40.999Z,78.99
2022-09-20T03:54:40.994Z,78.99
2022-09-20T03:55:40.977Z,79.09
2022-09-20T03:56:40.966Z,79.09
2022-09-20T03:57:40.997Z,79.09
2022-09-20T03:58:40.959Z,79.09
2022-09-20T03:59:40.955Z,79.09
2022-09-20T04:00:41.002Z,79.09
2022-09-20T04:01:40.915Z,79.09
2022-09-20T04:02:40.963Z,79.19
2022-09-20T04:03:40.938Z,79.19
2022-09-20T04:04:40.890Z,79.19
2022-09-20T04:05:40.918Z,79.19
2022-09-20T04:06:40.859Z,79.19
2022-09-20T04:07:40.855Z,79.19
2022-09-20T04:08:40.873Z,79.19
2022-09-20T04:09:40.831Z,79.19
2022-09-20T04:10:40.828Z,79.19
2022-09-20T04:11:40.831Z,79.29
2022-09-20T04:12:40.796Z,79.29
2022-09-20T04:13:40.789Z,79.19
2022-09-20T04:14:40.807Z,79.19
2022-09-20T04:15:40.787Z,79.19
2022-09-20T04:16:40.884Z,79.19
2022-09-20T04:17:40.758Z,79.19
2022-09-20T04:18:40.743Z,79.19
2022-09-20T04:19:40.730Z,79.29
2022-09-20T04:20:40.730Z,79.29
2022-09-20T04:21:40.710Z,79.29
2022-09-20T04:22:40.703Z,79.29
2022-09-20T04:23:40.674Z,79.29
2022-09-20T04:24:40.704Z,79.29
2022-09-20T04:25:43.755Z,79.29
2022-09-20T04:26:40.656Z,79.19
2022-09-20T04:27:40.642Z,79.19
2022-09-20T04:28:40.630Z,79.19
2022-09-20T04:29:40.604Z,79.19
2022-09-20T04:30:40.596Z,79.19
2022-09-20T04:31:40.639Z,79.09
2022-09-20T04:32:40.587Z,79.19
2022-09-20T04:33:40.608Z,79.19
2022-09-20T04:34:40.553Z,79.29
2022-09-20T04:35:40.569Z,79.29
2022-09-20T04:36:40.524Z,79.29
2022-09-20T04:37:40.546Z,79.39
2022-09-20T04:38:40.513Z,79.29
2022-09-20T04:39:40.503Z,79.39
2022-09-20T04:40:40.508Z,79.39
2022-09-20T04:41:40.484Z,79.39
2022-09-20T04:42:40.476Z,79.39
2022-09-20T04:43:40.465Z,79.49
2022-09-20T04:44:40.449Z,79.39
2022-09-20T04:45:40.457Z,79.39
2022-09-20T04:46:40.457Z,79.49
2022-09-20T04:47:40.421Z,79.49
2022-09-20T04:48:40.404Z,79.49
2022-09-20T04:49:40.420Z,79.49
2022-09-20T04:50:40.392Z,79.60
2022-09-20T04:51:40.372Z,79.60
2022-09-20T04:52:40.376Z,79.60
2022-09-20T04:53:40.362Z,79.49
2022-09-20T04:54:40.376Z,79.49
2022-09-20T04:55:40.357Z,79.49
2022-09-20T04:56:40.311Z,79.49
2022-09-20T04:57:40.339Z,79.49
2022-09-20T04:58:40.292Z,79.49
2022-09-20T04:59:40.338Z,79.49
2022-09-20T05:00:40.317Z,79.39
2022-09-20T05:01:40.382Z,79.39
2022-09-20T05:02:40.350Z,79.39
2022-09-20T05:03:40.253Z,79.49
2022-09-20T05:04:40.277Z,79.49
2022-09-20T05:05:40.245Z,79.49
2022-09-20T05:06:40.224Z,79.39
2022-09-20T05:07:40.231Z,79.39
2022-09-20T05:08:40.184Z,79.49
2022-09-20T05:09:40.186Z,79.60
2022-09-20T05:10:40.174Z,79.49
2022-09-20T05:11:40.163Z,79.39
2022-09-20T05:12:40.159Z,79.49
2022-09-20T05:13:40.169Z,79.49
2022-09-20T05:14:40.153Z,79.60
2022-09-20T05:15:40.134Z,79.60
2022-09-20T05:16:42.048Z,79.49
2022-09-20T05:17:40.113Z,79.49
2022-09-20T05:18:40.110Z,79.60
2022-09-20T05:19:40.069Z,79.60
2022-09-20T05:20:40.092Z,79.60
2022-09-20T05:21:40.074Z,79.60
2022-09-20T05:22:40.066Z,79.60
2022-09-20T05:23:40.046Z,79.60
2022-09-20T05:24:40.047Z,79.60
2022-09-20T05:25:40.001Z,79.60
2022-09-20T05:26:40.014Z,79.63
2022-09-20T05:27:39.991Z,79.63
2022-09-20T05:28:39.984Z,79.73
2022-09-20T05:29:39.960Z,79.60
2022-09-20T05:30:39.940Z,79.60
2022-09-20T05:31:40.008Z,79.63
2022-09-20T05:32:40.005Z,79.63
2022-09-20T05:33:39.929Z,79.63
2022-09-20T05:34:39.900Z,79.63
2022-09-20T05:35:39.918Z,79.63
2022-09-20T05:36:39.911Z,79.63
2022-09-20T05:37:39.904Z,79.63
2022-09-20T05:38:39.851Z,79.63
2022-09-20T05:39:39.885Z,79.63
2022-09-20T05:40:39.864Z,79.63
2022-09-20T05:41:39.864Z,79.63
2022-09-20T05:42:39.892Z,79.73
2022-09-20T05:43:39.838Z,79.73
2022-09-20T05:44:39.820Z,79.63
2022-09-20T05:45:46.898Z,79.73
2022-09-20T05:46:39.785Z,79.73
2022-09-20T05:47:39.804Z,79.73
2022-09-20T05:48:39.769Z,79.73
2022-09-20T05:49:39.757Z,79.73
2022-09-20T05:50:39.732Z,79.73
2022-09-20T05:51:39.728Z,79.73
2022-09-20T05:52:39.733Z,79.73
2022-09-20T05:53:39.713Z,79.73
2022-09-20T05:54:39.684Z,79.63
2022-09-20T05:55:39.678Z,79.63
2022-09-20T05:56:39.705Z,79.63
2022-09-20T05:57:39.656Z,79.63
2022-09-20T05:58:39.673Z,79.63
2022-09-20T05:59:39.622Z,79.63
2022-09-20T06:00:39.646Z,79.73
2022-09-20T06:01:39.599Z,79.83
2022-09-20T06:02:39.679Z,79.73
2022-09-20T06:03:39.595Z,79.83
2022-09-20T06:04:39.573Z,79.83
2022-09-20T06:05:39.565Z,79.83
2022-09-20T06:06:39.585Z,79.93
2022-09-20T06:07:39.559Z,79.83
2022-09-20T06:08:39.521Z,79.83
2022-09-20T06:09:39.533Z,79.83
2022-09-20T06:10:39.601Z,79.83
2022-09-20T06:11:39.507Z,79.73
2022-09-20T06:12:39.510Z,79.73
2022-09-20T06:13:39.485Z,79.73
2022-09-20T06:14:39.485Z,79.73
2022-09-20T06:15:39.450Z,79.73
2022-09-20T06:16:39.489Z,79.73
2022-09-20T06:17:39.440Z,79.73
2022-09-20T06:18:39.466Z,79.73
2022-09-20T06:19:39.424Z,79.73
2022-09-20T06:20:39.398Z,79.73
2022-09-20T06:21:39.395Z,79.73
2022-09-20T06:22:39.380Z,79.73
2022-09-20T06:23:39.413Z,79.63
2022-09-20T06:24:39.349Z,79.63
2022-09-20T06:25:39.380Z,79.63
2022-09-20T06:26:39.329Z,79.63
2022-09-20T06:27:39.406Z,79.63
2022-09-20T06:28:39.430Z,79.63
2022-09-20T06:29:39.306Z,79.63
2022-09-20T06:30:39.518Z,79.63
2022-09-20T06:31:39.424Z,79.73
2022-09-20T06:32:39.486Z,79.63
2022-09-20T06:33:39.303Z,79.73
2022-09-20T06:34:39.265Z,79.73
2022-09-20T06:35:39.242Z,79.73
2022-09-20T06:36:39.241Z,79.73
2022-09-20T06:37:39.223Z,79.73
2022-09-20T06:38:39.212Z,79.83
2022-09-20T06:39:39.224Z,79.93
2022-09-20T06:40:39.229Z,79.93
2022-09-20T06:41:39.173Z,79.93
2022-09-20T06:42:39.186Z,79.93
2022-09-20T06:43:39.156Z,79.93
2022-09-20T06:44:39.148Z,79.93
2022-09-20T06:45:39.178Z,79.93
2022-09-20T06:46:39.156Z,79.93
2022-09-20T06:47:39.101Z,79.93
2022-09-20T06:48:39.101Z,79.93
2022-09-20T06:49:39.077Z,79.93
2022-09-20T06:50:39.081Z,79.93
2022-09-20T06:51:40.583Z,79.93
2022-09-20T06:52:39.066Z,79.93
2022-09-20T06:53:39.097Z,79.93
2022-09-20T06:54:39.018Z,79.93
2022-09-20T06:55:39.022Z,80.04
2022-09-20T06:56:39.109Z,79.93
2022-09-20T06:57:39.052Z,80.13
2022-09-20T06:58:39.011Z,80.24
2022-09-20T06:59:38.988Z,80.24
2022-09-20T07:00:38.964Z,80.33
2022-09-20T07:01:39.061Z,80.44
2022-09-20T07:02:38.992Z,80.33
2022-09-20T07:03:39.147Z,80.44
2022-09-20T07:04:38.941Z,80.33
2022-09-20T07:05:38.908Z,80.40
2022-09-20T07:06:38.929Z,80.44
2022-09-20T07:07:38.867Z,80.33
2022-09-20T07:08:38.894Z,80.33
2022-09-20T07:09:38.897Z,80.30
2022-09-20T07:10:38.900Z,80.33
2022-09-20T07:11:38.860Z,80.30
2022-09-20T07:12:38.861Z,80.30
2022-09-20T07:13:38.823Z,80.30
2022-09-20T07:14:38.831Z,80.30
2022-09-20T07:15:38.820Z,80.40
2022-09-20T07:16:38.858Z,80.40
2022-09-20T07:17:38.796Z,80.40
2022-09-20T07:18:38.764Z,80.50
2022-09-20T07:19:38.755Z,80.50
2022-09-20T07:20:38.759Z,80.50
2022-09-20T07:21:38.762Z,80.50
2022-09-20T07:22:38.759Z,80.50
2022-09-20T07:23:38.713Z,80.50
2022-09-20T07:24:38.717Z,80.60
2022-09-20T07:25:38.719Z,80.60
2022-09-20T07:26:38.689Z,80.60
2022-09-20T07:27:38.681Z,80.70
2022-09-20T07:28:38.688Z,80.80
2022-09-20T07:29:38.768Z,80.80
2022-09-20T07:30:38.798Z,80.80
2022-09-20T07:31:38.750Z,80.70
2022-09-20T07:32:38.618Z,80.70
2022-09-20T07:33:38.595Z,80.60
2022-09-20T07:34:38.599Z,80.60
2022-09-20T07:35:38.617Z,80.60
2022-09-20T07:36:38.585Z,80.60
2022-09-20T07:37:38.568Z,80.50
2022-09-20T07:38:38.567Z,80.60
2022-09-20T07:39:38.532Z,80.60
2022-09-20T07:40:38.602Z,80.50
2022-09-20T07:41:38.520Z,80.50
2022-09-20T07:42:38.518Z,80.50
2022-09-20T07:43:38.534Z,80.60
2022-09-20T07:44:38.854Z,80.60
2022-09-20T07:45:38.495Z,80.70
2022-09-20T07:46:38.473Z,80.80
2022-09-20T07:47:38.450Z,80.80
2022-09-20T07:48:38.434Z,80.60
2022-09-20T07:49:38.948Z,80.70
2022-09-20T07:50:38.402Z,80.60
2022-09-20T07:51:39.249Z,80.70
2022-09-20T07:52:38.391Z,80.60
2022-09-20T07:53:38.387Z,80.60
2022-09-20T07:54:38.417Z,80.70
2022-09-20T07:55:38.352Z,80.60
2022-09-20T07:56:38.380Z,80.60
2022-09-20T07:57:38.355Z,80.60
2022-09-20T07:58:38.354Z,80.70
2022-09-20T07:59:38.309Z,80.70
2022-09-20T08:00:38.306Z,80.80
2022-09-20T08:01:38.296Z,80.70
2022-09-20T08:02:38.326Z,80.90
2022-09-20T08:03:38.285Z,81.01
2022-09-20T08:04:38.267Z,81.01
2022-09-20T08:05:38.241Z,81.10
2022-09-20T08:06:38.271Z,81.10
2022-09-20T08:07:38.272Z,81.10
2022-09-20T08:08:38.231Z,81.10
2022-09-20T08:09:38.193Z,81.10
2022-09-20T08:10:38.203Z,81.21
2022-09-20T08:11:38.182Z,81.30
2022-09-20T08:14:39.146Z,81.30
2022-09-20T08:15:38.165Z,81.30
2022-09-20T08:16:38.192Z,81.30
2022-09-20T08:17:38.135Z,81.21
2022-09-20T08:18:38.104Z,81.21
2022-09-20T08:19:38.104Z,81.21
2022-09-20T08:20:38.124Z,81.21
2022-09-20T08:21:38.105Z,81.21
2022-09-20T08:22:38.078Z,81.30
2022-09-20T08:23:38.061Z,81.30
2022-09-20T08:24:38.044Z,81.30
2022-09-20T08:25:38.042Z,81.27
2022-09-20T08:26:38.062Z,81.30
2022-09-20T08:27:37.993Z,81.17
2022-09-20T08:28:38.044Z,81.17
2022-09-20T08:29:37.980Z,81.17
2022-09-20T08:30:37.980Z,81.27
2022-09-20T08:31:38.024Z,81.27
2022-09-20T08:32:37.991Z,81.27
2022-09-20T08:33:38.617Z,81.27
2022-09-20T08:34:38.075Z,81.27
2022-09-20T08:35:38.415Z,81.27
2022-09-20T08:36:38.117Z,81.27
2022-09-20T08:37:37.891Z,81.27
2022-09-20T08:40:39.001Z,81.27
2022-09-20T08:41:37.890Z,81.37
2022-09-20T08:42:43.798Z,81.37
2022-09-20T08:43:38.880Z,81.37
2022-09-20T08:44:37.811Z,81.37
2022-09-20T08:45:37.820Z,81.37
2022-09-20T08:46:37.839Z,81.37
2022-09-20T08:47:37.804Z,81.37
2022-09-20T08:48:38.906Z,81.47
2022-09-20T08:49:37.761Z,81.47
2022-09-20T08:50:37.754Z,81.47
2022-09-20T08:51:37.755Z,81.47
2022-09-20T08:52:40.609Z,81.47
2022-09-20T08:53:37.710Z,81.47
2022-09-20T08:54:37.737Z,81.47
2022-09-20T08:55:37.791Z,81.47
2022-09-20T08:56:37.709Z,81.47
2022-09-20T08:57:37.680Z,81.57
2022-09-20T08:58:37.674Z,81.57
2022-09-20T08:59:37.664Z,81.57
2022-09-20T09:00:37.658Z,81.57
2022-09-20T09:01:37.654Z,81.53
2022-09-20T09:02:37.754Z,81.53
2022-09-20T09:03:37.618Z,81.63
2022-09-20T09:04:37.625Z,81.63
2022-09-20T09:05:37.605Z,81.63
2022-09-20T09:06:37.592Z,81.63
2022-09-20T09:07:37.591Z,81.63
2022-09-20T09:08:38.070Z,81.63
2022-09-20T09:09:38.003Z,81.63
2022-09-20T09:10:42.653Z,81.63
2022-09-20T09:11:38.532Z,81.63
2022-09-20T09:12:37.529Z,81.73
2022-09-20T09:13:37.597Z,81.73
2022-09-20T09:14:37.509Z,81.73
2022-09-20T09:15:37.622Z,81.73
2022-09-20T09:16:37.577Z,81.84
2022-09-20T09:17:37.557Z,81.84
2022-09-20T09:18:37.599Z,81.84
2022-09-20T09:19:37.560Z,81.84
2022-09-20T09:20:38.155Z,81.84
2022-09-20T09:21:37.527Z,81.84
2022-09-20T09:22:38.228Z,81.84
2022-09-20T09:23:37.479Z,81.84
2022-09-20T09:24:37.501Z,81.93
2022-09-20T09:25:37.443Z,81.84
2022-09-20T09:26:37.515Z,81.84
2022-09-20T09:27:37.607Z,81.93
2022-09-20T09:28:37.502Z,81.84
2022-09-20T09:29:37.401Z,81.84
2022-09-20T09:30:37.589Z,81.84
2022-09-20T09:31:37.471Z,81.84
2022-09-20T09:32:37.340Z,81.93
2022-09-20T09:33:37.313Z,81.90
2022-09-20T09:34:37.334Z,81.84
2022-09-20T09:35:37.268Z,81.84
2022-09-20T09:36:37.249Z,81.84
2022-09-20T09:37:37.921Z,81.73
2022-09-20T09:38:37.259Z,81.73
2022-09-20T09:39:37.232Z,81.63
2022-09-20T09:40:37.292Z,81.53
2022-09-20T09:41:37.248Z,81.43
2022-09-20T09:42:37.186Z,81.33
2022-09-20T09:43:37.166Z,81.23
2022-09-20T09:44:37.346Z,81.23
2022-09-20T09:45:37.199Z,81.13
2022-09-20T09:46:37.151Z,81.23
2022-09-20T09:47:37.136Z,81.13
2022-09-20T09:48:39.322Z,81.13
2022-09-20T09:49:37.240Z,81.13
2022-09-20T09:50:37.119Z,81.03
2022-09-20T09:51:37.199Z,81.13
2022-09-20T09:52:37.101Z,81.03
2022-09-20T09:53:37.058Z,80.93
2022-09-20T09:54:37.091Z,80.93
2022-09-20T09:55:37.087Z,80.93
2022-09-20T09:56:37.028Z,80.93
2022-09-20T09:57:37.141Z,80.83
2022-09-20T09:58:37.038Z,80.73
2022-09-20T09:59:36.999Z,80.63
2022-09-20T10:00:37.700Z,80.63
2022-09-20T10:01:37.283Z,80.73
2022-09-20T10:02:37.052Z,80.63
2022-09-20T10:03:37.776Z,80.63
2022-09-20T10:04:36.937Z,80.52
2022-09-20T10:05:37.036Z,80.52
2022-09-20T10:06:36.927Z,80.52
2022-09-20T10:07:36.945Z,80.43
2022-09-20T10:08:36.908Z,80.43
2022-09-20T10:09:36.934Z,80.43
2022-09-20T10:10:36.875Z,80.32
2022-09-20T10:11:36.949Z,80.32
2022-09-20T10:12:36.866Z,80.22
2022-09-20T10:13:40.475Z,80.12
2022-09-20T10:14:37.490Z,80.12
2022-09-20T10:15:36.834Z,80.02
2022-09-20T10:16:36.823Z,79.92
2022-09-20T10:17:36.877Z,79.92
2022-09-20T10:18:36.801Z,79.92
2022-09-20T10:19:36.808Z,79.92
2022-09-20T10:20:36.773Z,79.92
2022-09-20T10:21:36.796Z,79.92
2022-09-20T10:22:36.744Z,79.92
2022-09-20T10:24:03.013Z,79.88
2022-09-20T10:24:37.732Z,79.92
2022-09-20T10:25:36.827Z,79.82
2022-09-20T10:26:36.702Z,79.88
2022-09-20T10:27:38.670Z,79.88
2022-09-20T10:28:36.682Z,79.88
2022-09-20T10:29:37.105Z,79.79
2022-09-20T10:30:36.738Z,79.79
2022-09-20T10:31:36.758Z,79.79
2022-09-20T10:32:36.677Z,79.68
2022-09-20T10:33:36.645Z,79.79
2022-09-20T10:34:36.626Z,79.88
2022-09-20T10:35:36.640Z,79.88
2022-09-20T10:36:36.587Z,79.88
2022-09-20T10:37:36.614Z,79.88
2022-09-20T10:38:36.576Z,79.88
2022-09-20T10:39:36.553Z,79.88
2022-09-20T10:40:36.689Z,79.88
2022-09-20T10:41:37.275Z,79.99
2022-09-20T10:42:36.588Z,79.99
2022-09-20T10:43:36.548Z,79.99
2022-09-20T10:44:36.503Z,80.19
2022-09-20T10:46:03.718Z,80.29
2022-09-20T10:46:37.567Z,80.29
2022-09-20T10:47:37.240Z,80.29
2022-09-20T10:48:36.495Z,80.29
2022-09-20T10:49:36.502Z,80.29
2022-09-20T10:50:36.506Z,80.29
2022-09-20T10:51:36.471Z,80.39
2022-09-20T10:52:36.491Z,80.39
2022-09-20T10:53:36.478Z,80.39
2022-09-20T10:54:36.392Z,80.39
2022-09-20T10:55:36.399Z,80.39
2022-09-20T10:56:36.400Z,80.39
2022-09-20T10:57:36.389Z,80.49
2022-09-20T10:58:36.365Z,80.49
2022-09-20T10:59:36.387Z,80.49
2022-09-20T11:00:36.354Z,80.49
2022-09-20T11:01:36.423Z,80.58
2022-09-20T11:02:36.441Z,80.58
2022-09-20T11:03:36.320Z,80.69
2022-09-20T11:04:36.282Z,80.69
2022-09-20T11:05:36.376Z,80.69
2022-09-20T11:06:36.302Z,80.69
2022-09-20T11:07:36.267Z,80.69
2022-09-20T11:08:36.274Z,80.79
2022-09-20T11:09:36.251Z,80.89
2022-09-20T11:10:36.251Z,80.89
2022-09-20T11:11:36.221Z,80.89
2022-09-20T11:12:36.203Z,80.99
2022-09-20T11:13:36.236Z,80.99
2022-09-20T11:14:36.213Z,80.99
2022-09-20T11:15:36.169Z,80.99
2022-09-20T11:16:36.240Z,80.99
2022-09-20T11:17:36.183Z,81.09
2022-09-20T11:18:36.129Z,81.09
2022-09-20T11:19:36.145Z,81.09
2022-09-20T11:20:36.134Z,81.19
2022-09-20T11:21:36.122Z,81.19
2022-09-20T11:22:36.135Z,81.19
2022-09-20T11:23:36.078Z,81.19
2022-09-20T11:24:36.071Z,81.19
2022-09-20T11:25:36.059Z,81.19
2022-09-20T11:26:36.082Z,81.19
2022-09-20T11:27:36.052Z,81.19
2022-09-20T11:28:36.041Z,81.23
2022-09-20T11:29:36.032Z,81.19
2022-09-20T11:30:36.022Z,81.19
2022-09-20T11:31:36.052Z,81.23
2022-09-20T11:32:36.163Z,81.23
2022-09-20T11:33:39.325Z,81.23
2022-09-20T11:34:36.960Z,81.33
2022-09-20T11:35:35.951Z,81.33
2022-09-20T11:36:35.940Z,81.33
2022-09-20T11:37:35.942Z,81.33
2022-09-20T11:38:35.984Z,81.33
2022-09-20T11:39:35.951Z,81.33
2022-09-20T11:40:35.961Z,81.33
2022-09-20T11:41:35.912Z,81.33
2022-09-20T11:42:35.888Z,81.33
2022-09-20T11:43:35.886Z,81.43
2022-09-20T11:44:35.860Z,81.43
2022-09-20T11:45:35.915Z,81.43
2022-09-20T11:46:35.861Z,81.43
2022-09-20T11:47:54.928Z,81.43
2022-09-20T11:48:36.828Z,81.53
2022-09-20T11:49:35.807Z,81.43
2022-09-20T11:50:35.820Z,81.53
2022-09-20T11:51:35.804Z,81.53
2022-09-20T11:52:35.778Z,81.53
2022-09-20T11:53:37.001Z,81.53
2022-09-20T11:54:35.754Z,81.53
2022-09-20T11:55:35.729Z,81.53
2022-09-20T11:56:35.731Z,81.53
2022-09-20T11:57:35.721Z,81.53
2022-09-20T11:58:35.713Z,81.53
2022-09-20T11:59:35.721Z,81.63
2022-09-20T12:00:35.711Z,81.53
2022-09-20T12:01:35.677Z,81.53
2022-09-20T12:02:35.859Z,81.53
2022-09-20T12:03:35.695Z,81.53
2022-09-20T12:04:36.226Z,81.53
2022-09-20T12:05:35.646Z,81.43
2022-09-20T12:06:35.636Z,81.43
2022-09-20T12:07:35.607Z,81.43
2022-09-20T12:08:35.608Z,81.33
2022-09-20T12:09:35.603Z,81.33
2022-09-20T12:10:35.578Z,81.33
2022-09-20T12:11:35.557Z,81.23
2022-09-20T12:12:35.624Z,81.23
2022-09-20T12:13:35.544Z,81.13
2022-09-20T12:14:35.565Z,81.13
2022-09-20T12:15:35.530Z,81.13
2022-09-20T12:16:35.561Z,81.13
2022-09-20T12:17:35.503Z,81.13
2022-09-20T12:18:35.540Z,81.03
2022-09-20T12:19:35.496Z,81.03
2022-09-20T12:20:35.519Z,80.93
2022-09-20T12:21:35.489Z,80.93
2022-09-20T12:22:35.582Z,80.89
2022-09-20T12:23:35.437Z,80.79
2022-09-20T12:24:35.429Z,80.79
2022-09-20T12:25:35.408Z,80.69
2022-09-20T12:26:35.409Z,80.69
2022-09-20T12:27:35.385Z,80.58
2022-09-20T12:28:35.416Z,80.58
2022-09-20T12:29:35.396Z,80.58
2022-09-20T12:30:35.366Z,80.49
2022-09-20T12:31:35.386Z,80.58
2022-09-20T12:32:35.356Z,80.49
2022-09-20T12:33:35.314Z,80.49
2022-09-20T12:34:35.305Z,80.49
2022-09-20T12:35:36.097Z,80.49
2022-09-20T12:36:35.289Z,80.49
2022-09-20T12:37:35.285Z,80.39
2022-09-20T12:38:35.283Z,80.49
2022-09-20T12:39:35.249Z,80.39
2022-09-20T12:40:35.279Z,80.49
2022-09-20T12:41:35.236Z,80.49
2022-09-20T12:42:35.241Z,80.58
2022-09-20T12:43:35.250Z,80.58
2022-09-20T12:44:35.209Z,80.58
2022-09-20T12:45:35.256Z,80.65
2022-09-20T12:46:35.171Z,80.65
2022-09-20T12:47:35.205Z,80.75
2022-09-20T12:48:35.168Z,80.75
2022-09-20T12:49:35.207Z,80.75
2022-09-20T12:50:35.168Z,80.75
2022-09-20T12:51:35.155Z,80.75
2022-09-20T12:52:36.037Z,80.75
2022-09-20T12:53:35.095Z,80.85
2022-09-20T12:54:35.121Z,80.85
2022-09-20T12:55:35.093Z,80.85
2022-09-20T12:56:35.060Z,80.85